sensor_id;sensor_type;location;lat;lon;timestamp;P1;durP1;ratioP1;P2;durP2;ratioP2
48367;SDS011;34173;47.446;18.912;2023-07-22T00:00:12;6.05;;;3.10;;
48367;SDS011;34173;47.446;18.912;2023-07-22T00:02:43;5.35;;;2.90;;
48367;SDS011;34173;47.446;18.912;2023-07-22T00:05:10;4.65;;;2.72;;
48367;SDS011;34173;47.446;18.912;2023-07-22T00:07:38;5.62;;;2.90;;
48367;SDS011;34173;47.446;18.912;2023-07-22T00:10:07;5.20;;;2.80;;
48367;SDS011;34173;47.446;18.912;2023-07-22T00:12:37;5.70;;;2.70;;
48367;SDS011;34173;47.446;18.912;2023-07-22T00:15:04;4.97;;;2.83;;
48367;SDS011;34173;47.446;18.912;2023-07-22T00:17:33;5.32;;;2.90;;
48367;SDS011;34173;47.446;18.912;2023-07-22T00:20:01;6.85;;;3.20;;
48367;SDS011;34173;47.446;18.912;2023-07-22T00:22:31;4.97;;;2.87;;
48367;SDS011;34173;47.446;18.912;2023-07-22T00:24:59;5.53;;;2.75;;
48367;SDS011;34173;47.446;18.912;2023-07-22T00:27:29;4.90;;;2.60;;
48367;SDS011;34173;47.446;18.912;2023-07-22T00:29:57;5.12;;;2.70;;
48367;SDS011;34173;47.446;18.912;2023-07-22T00:32:25;5.12;;;2.62;;
48367;SDS011;34173;47.446;18.912;2023-07-22T00:34:52;6.15;;;2.92;;
48367;SDS011;34173;47.446;18.912;2023-07-22T00:37:20;5.82;;;2.65;;
48367;SDS011;34173;47.446;18.912;2023-07-22T00:39:48;5.28;;;2.80;;
48367;SDS011;34173;47.446;18.912;2023-07-22T00:42:15;6.00;;;2.92;;
48367;SDS011;34173;47.446;18.912;2023-07-22T00:44:42;4.60;;;2.85;;
48367;SDS011;34173;47.446;18.912;2023-07-22T00:47:12;5.20;;;2.85;;
48367;SDS011;34173;47.446;18.912;2023-07-22T00:49:40;4.95;;;2.62;;
48367;SDS011;34173;47.446;18.912;2023-07-22T00:52:08;6.25;;;2.87;;
48367;SDS011;34173;47.446;18.912;2023-07-22T00:54:38;5.80;;;2.92;;
48367;SDS011;34173;47.446;18.912;2023-07-22T00:57:06;4.43;;;2.67;;
48367;SDS011;34173;47.446;18.912;2023-07-22T00:59:34;5.03;;;2.70;;
48367;SDS011;34173;47.446;18.912;2023-07-22T01:02:01;5.78;;;3.25;;
48367;SDS011;34173;47.446;18.912;2023-07-22T01:04:29;5.30;;;3.37;;
48367;SDS011;34173;47.446;18.912;2023-07-22T01:07:00;6.03;;;3.10;;
48367;SDS011;34173;47.446;18.912;2023-07-22T01:09:35;5.50;;;2.83;;
48367;SDS011;34173;47.446;18.912;2023-07-22T01:12:04;5.07;;;2.70;;
48367;SDS011;34173;47.446;18.912;2023-07-22T01:14:33;5.55;;;2.92;;
48367;SDS011;34173;47.446;18.912;2023-07-22T01:17:02;5.75;;;2.70;;
48367;SDS011;34173;47.446;18.912;2023-07-22T01:19:30;6.13;;;2.80;;
48367;SDS011;34173;47.446;18.912;2023-07-22T01:22:02;5.50;;;2.87;;
48367;SDS011;34173;47.446;18.912;2023-07-22T01:24:31;4.93;;;2.80;;
48367;SDS011;34173;47.446;18.912;2023-07-22T01:26:59;5.82;;;2.92;;
48367;SDS011;34173;47.446;18.912;2023-07-22T01:29:27;8.23;;;3.40;;
48367;SDS011;34173;47.446;18.912;2023-07-22T01:31:54;4.82;;;2.72;;
48367;SDS011;34173;47.446;18.912;2023-07-22T01:34:22;5.57;;;3.00;;
48367;SDS011;34173;47.446;18.912;2023-07-22T01:36:52;6.62;;;3.00;;
48367;SDS011;34173;47.446;18.912;2023-07-22T01:39:21;4.82;;;2.95;;
48367;SDS011;34173;47.446;18.912;2023-07-22T01:41:49;5.55;;;3.22;;
48367;SDS011;34173;47.446;18.912;2023-07-22T01:44:16;12.07;;;3.30;;
48367;SDS011;34173;47.446;18.912;2023-07-22T01:46:44;6.00;;;3.00;;
48367;SDS011;34173;47.446;18.912;2023-07-22T01:49:12;5.18;;;2.78;;
48367;SDS011;34173;47.446;18.912;2023-07-22T01:51:39;5.40;;;3.10;;
48367;SDS011;34173;47.446;18.912;2023-07-22T01:54:07;5.57;;;2.97;;
48367;SDS011;34173;47.446;18.912;2023-07-22T01:56:36;5.20;;;3.20;;
48367;SDS011;34173;47.446;18.912;2023-07-22T01:59:04;5.32;;;2.85;;
48367;SDS011;34173;47.446;18.912;2023-07-22T02:01:33;5.78;;;3.03;;
48367;SDS011;34173;47.446;18.912;2023-07-22T02:04:00;6.35;;;3.12;;
48367;SDS011;34173;47.446;18.912;2023-07-22T02:06:28;6.12;;;3.28;;
48367;SDS011;34173;47.446;18.912;2023-07-22T02:08:57;6.72;;;3.10;;
48367;SDS011;34173;47.446;18.912;2023-07-22T02:11:24;8.50;;;3.40;;
48367;SDS011;34173;47.446;18.912;2023-07-22T02:13:52;6.05;;;3.22;;
48367;SDS011;34173;47.446;18.912;2023-07-22T02:16:19;5.30;;;2.93;;
48367;SDS011;34173;47.446;18.912;2023-07-22T02:18:47;6.65;;;3.05;;
48367;SDS011;34173;47.446;18.912;2023-07-22T02:21:15;4.82;;;3.00;;
48367;SDS011;34173;47.446;18.912;2023-07-22T02:23:42;5.33;;;3.07;;
48367;SDS011;34173;47.446;18.912;2023-07-22T02:26:10;6.45;;;3.00;;
48367;SDS011;34173;47.446;18.912;2023-07-22T02:28:37;5.70;;;3.12;;
48367;SDS011;34173;47.446;18.912;2023-07-22T02:31:05;5.57;;;3.37;;
48367;SDS011;34173;47.446;18.912;2023-07-22T02:33:35;6.10;;;3.17;;
48367;SDS011;34173;47.446;18.912;2023-07-22T02:36:02;5.47;;;3.10;;
48367;SDS011;34173;47.446;18.912;2023-07-22T02:38:30;5.57;;;3.22;;
48367;SDS011;34173;47.446;18.912;2023-07-22T02:41:01;5.73;;;3.40;;
48367;SDS011;34173;47.446;18.912;2023-07-22T02:43:30;5.50;;;3.75;;
48367;SDS011;34173;47.446;18.912;2023-07-22T02:46:00;6.37;;;3.58;;
48367;SDS011;34173;47.446;18.912;2023-07-22T02:48:29;5.57;;;3.50;;
48367;SDS011;34173;47.446;18.912;2023-07-22T02:51:07;6.47;;;4.22;;
48367;SDS011;34173;47.446;18.912;2023-07-22T02:53:35;7.67;;;4.07;;
48367;SDS011;34173;47.446;18.912;2023-07-22T02:56:07;7.65;;;3.90;;
48367;SDS011;34173;47.446;18.912;2023-07-22T02:58:35;6.00;;;3.70;;
48367;SDS011;34173;47.446;18.912;2023-07-22T03:01:03;6.97;;;3.70;;
48367;SDS011;34173;47.446;18.912;2023-07-22T03:03:32;6.50;;;4.20;;
48367;SDS011;34173;47.446;18.912;2023-07-22T03:06:03;8.40;;;3.92;;
48367;SDS011;34173;47.446;18.912;2023-07-22T03:08:31;7.30;;;4.18;;
48367;SDS011;34173;47.446;18.912;2023-07-22T03:10:59;6.68;;;4.10;;
48367;SDS011;34173;47.446;18.912;2023-07-22T03:13:26;6.10;;;3.97;;
48367;SDS011;34173;47.446;18.912;2023-07-22T03:15:57;7.37;;;3.78;;
48367;SDS011;34173;47.446;18.912;2023-07-22T03:18:25;6.85;;;4.40;;
48367;SDS011;34173;47.446;18.912;2023-07-22T03:20:52;6.40;;;4.00;;
48367;SDS011;34173;47.446;18.912;2023-07-22T03:23:20;7.12;;;5.35;;
48367;SDS011;34173;47.446;18.912;2023-07-22T03:25:48;7.43;;;4.90;;
48367;SDS011;34173;47.446;18.912;2023-07-22T03:28:15;8.98;;;4.80;;
48367;SDS011;34173;47.446;18.912;2023-07-22T03:30:44;8.70;;;5.72;;
48367;SDS011;34173;47.446;18.912;2023-07-22T03:33:11;8.25;;;4.30;;
48367;SDS011;34173;47.446;18.912;2023-07-22T03:35:39;6.83;;;4.00;;
48367;SDS011;34173;47.446;18.912;2023-07-22T03:38:08;9.23;;;5.10;;
48367;SDS011;34173;47.446;18.912;2023-07-22T03:40:36;9.27;;;6.82;;
48367;SDS011;34173;47.446;18.912;2023-07-22T03:43:04;10.40;;;7.43;;
48367;SDS011;34173;47.446;18.912;2023-07-22T03:45:32;8.35;;;5.20;;
48367;SDS011;34173;47.446;18.912;2023-07-22T03:48:00;10.63;;;7.10;;
48367;SDS011;34173;47.446;18.912;2023-07-22T03:50:28;7.70;;;5.23;;
48367;SDS011;34173;47.446;18.912;2023-07-22T03:52:55;7.00;;;4.72;;
48367;SDS011;34173;47.446;18.912;2023-07-22T03:55:23;9.73;;;5.07;;
48367;SDS011;34173;47.446;18.912;2023-07-22T03:57:51;8.30;;;5.10;;
48367;SDS011;34173;47.446;18.912;2023-07-22T04:00:19;10.03;;;4.77;;
48367;SDS011;34173;47.446;18.912;2023-07-22T04:02:47;6.85;;;4.70;;
48367;SDS011;34173;47.446;18.912;2023-07-22T04:05:15;8.00;;;4.57;;
48367;SDS011;34173;47.446;18.912;2023-07-22T04:07:43;7.57;;;4.40;;
48367;SDS011;34173;47.446;18.912;2023-07-22T04:10:13;8.15;;;4.93;;
48367;SDS011;34173;47.446;18.912;2023-07-22T04:12:40;8.30;;;4.57;;
48367;SDS011;34173;47.446;18.912;2023-07-22T04:15:09;8.32;;;4.55;;
48367;SDS011;34173;47.446;18.912;2023-07-22T04:17:37;6.50;;;4.10;;
48367;SDS011;34173;47.446;18.912;2023-07-22T04:20:05;6.60;;;3.97;;
48367;SDS011;34173;47.446;18.912;2023-07-22T04:22:34;6.47;;;4.37;;
48367;SDS011;34173;47.446;18.912;2023-07-22T04:25:02;7.53;;;4.25;;
48367;SDS011;34173;47.446;18.912;2023-07-22T04:27:31;6.90;;;3.70;;
48367;SDS011;34173;47.446;18.912;2023-07-22T04:29:58;6.50;;;4.00;;
48367;SDS011;34173;47.446;18.912;2023-07-22T04:32:26;5.97;;;4.00;;
48367;SDS011;34173;47.446;18.912;2023-07-22T04:34:54;7.72;;;4.10;;
48367;SDS011;34173;47.446;18.912;2023-07-22T04:37:21;8.73;;;4.37;;
48367;SDS011;34173;47.446;18.912;2023-07-22T04:39:49;7.07;;;4.03;;
48367;SDS011;34173;47.446;18.912;2023-07-22T04:42:17;8.27;;;4.25;;
48367;SDS011;34173;47.446;18.912;2023-07-22T04:44:45;6.62;;;3.80;;
48367;SDS011;34173;47.446;18.912;2023-07-22T04:47:12;7.47;;;4.07;;
48367;SDS011;34173;47.446;18.912;2023-07-22T04:49:40;6.80;;;4.60;;
48367;SDS011;34173;47.446;18.912;2023-07-22T04:52:07;7.70;;;4.10;;
48367;SDS011;34173;47.446;18.912;2023-07-22T04:54:35;6.97;;;4.70;;
48367;SDS011;34173;47.446;18.912;2023-07-22T04:57:03;6.10;;;4.68;;
48367;SDS011;34173;47.446;18.912;2023-07-22T04:59:33;8.05;;;4.47;;
48367;SDS011;34173;47.446;18.912;2023-07-22T05:02:01;9.27;;;5.93;;
48367;SDS011;34173;47.446;18.912;2023-07-22T05:04:28;5.95;;;4.37;;
48367;SDS011;34173;47.446;18.912;2023-07-22T05:06:55;9.00;;;5.55;;
48367;SDS011;34173;47.446;18.912;2023-07-22T05:09:23;7.07;;;5.05;;
48367;SDS011;34173;47.446;18.912;2023-07-22T05:11:51;9.32;;;6.10;;
48367;SDS011;34173;47.446;18.912;2023-07-22T05:14:18;9.55;;;6.18;;
48367;SDS011;34173;47.446;18.912;2023-07-22T05:16:46;8.68;;;5.82;;
48367;SDS011;34173;47.446;18.912;2023-07-22T05:19:13;7.87;;;4.80;;
48367;SDS011;34173;47.446;18.912;2023-07-22T05:21:41;10.53;;;6.90;;
48367;SDS011;34173;47.446;18.912;2023-07-22T05:24:09;8.37;;;5.40;;
48367;SDS011;34173;47.446;18.912;2023-07-22T05:26:36;6.78;;;5.07;;
48367;SDS011;34173;47.446;18.912;2023-07-22T05:29:03;8.02;;;6.10;;
48367;SDS011;34173;47.446;18.912;2023-07-22T05:31:31;9.18;;;5.72;;
48367;SDS011;34173;47.446;18.912;2023-07-22T05:33:59;9.05;;;5.90;;
48367;SDS011;34173;47.446;18.912;2023-07-22T05:36:26;9.13;;;5.90;;
48367;SDS011;34173;47.446;18.912;2023-07-22T05:38:57;10.27;;;6.28;;
48367;SDS011;34173;47.446;18.912;2023-07-22T05:41:25;9.20;;;6.23;;
48367;SDS011;34173;47.446;18.912;2023-07-22T05:43:53;8.63;;;6.20;;
48367;SDS011;34173;47.446;18.912;2023-07-22T05:46:20;7.60;;;5.53;;
48367;SDS011;34173;47.446;18.912;2023-07-22T05:48:48;9.70;;;6.37;;
48367;SDS011;34173;47.446;18.912;2023-07-22T05:51:15;8.13;;;6.05;;
48367;SDS011;34173;47.446;18.912;2023-07-22T05:53:43;6.85;;;5.28;;
48367;SDS011;34173;47.446;18.912;2023-07-22T05:56:11;9.05;;;6.37;;
48367;SDS011;34173;47.446;18.912;2023-07-22T05:58:38;7.87;;;5.70;;
48367;SDS011;34173;47.446;18.912;2023-07-22T06:01:06;9.10;;;5.80;;
48367;SDS011;34173;47.446;18.912;2023-07-22T06:03:34;7.78;;;5.43;;
48367;SDS011;34173;47.446;18.912;2023-07-22T06:06:02;11.10;;;5.37;;
48367;SDS011;34173;47.446;18.912;2023-07-22T06:08:29;9.07;;;6.10;;
48367;SDS011;34173;47.446;18.912;2023-07-22T06:10:57;7.25;;;5.03;;
48367;SDS011;34173;47.446;18.912;2023-07-22T06:13:24;7.10;;;5.03;;
48367;SDS011;34173;47.446;18.912;2023-07-22T06:15:52;8.45;;;5.20;;
48367;SDS011;34173;47.446;18.912;2023-07-22T06:18:20;7.53;;;4.62;;
48367;SDS011;34173;47.446;18.912;2023-07-22T06:20:47;6.80;;;4.68;;
48367;SDS011;34173;47.446;18.912;2023-07-22T06:23:15;6.93;;;4.70;;
48367;SDS011;34173;47.446;18.912;2023-07-22T06:25:42;7.75;;;4.22;;
48367;SDS011;34173;47.446;18.912;2023-07-22T06:28:10;6.47;;;4.53;;
48367;SDS011;34173;47.446;18.912;2023-07-22T06:30:37;7.10;;;4.28;;
48367;SDS011;34173;47.446;18.912;2023-07-22T06:33:05;6.82;;;4.37;;
48367;SDS011;34173;47.446;18.912;2023-07-22T06:35:33;5.87;;;4.00;;
48367;SDS011;34173;47.446;18.912;2023-07-22T06:38:00;6.53;;;3.90;;
48367;SDS011;34173;47.446;18.912;2023-07-22T06:40:28;6.40;;;3.70;;
48367;SDS011;34173;47.446;18.912;2023-07-22T06:42:55;6.65;;;4.45;;
48367;SDS011;34173;47.446;18.912;2023-07-22T06:45:23;6.20;;;4.07;;
48367;SDS011;34173;47.446;18.912;2023-07-22T06:47:51;7.55;;;3.92;;
48367;SDS011;34173;47.446;18.912;2023-07-22T06:50:18;5.93;;;4.00;;
48367;SDS011;34173;47.446;18.912;2023-07-22T06:52:45;9.75;;;3.95;;
48367;SDS011;34173;47.446;18.912;2023-07-22T06:55:13;6.25;;;3.87;;
48367;SDS011;34173;47.446;18.912;2023-07-22T06:57:41;7.53;;;4.55;;
48367;SDS011;34173;47.446;18.912;2023-07-22T07:00:08;7.60;;;3.97;;
48367;SDS011;34173;47.446;18.912;2023-07-22T07:02:39;6.53;;;3.70;;
48367;SDS011;34173;47.446;18.912;2023-07-22T07:05:07;8.23;;;4.00;;
48367;SDS011;34173;47.446;18.912;2023-07-22T07:07:34;6.13;;;3.87;;
48367;SDS011;34173;47.446;18.912;2023-07-22T07:10:02;7.70;;;4.10;;
48367;SDS011;34173;47.446;18.912;2023-07-22T07:12:30;7.28;;;3.60;;
48367;SDS011;34173;47.446;18.912;2023-07-22T07:14:57;8.03;;;3.90;;
48367;SDS011;34173;47.446;18.912;2023-07-22T07:17:25;6.68;;;4.03;;
48367;SDS011;34173;47.446;18.912;2023-07-22T07:19:52;6.32;;;3.80;;
48367;SDS011;34173;47.446;18.912;2023-07-22T07:22:20;6.82;;;3.65;;
48367;SDS011;34173;47.446;18.912;2023-07-22T07:24:48;6.22;;;3.90;;
48367;SDS011;34173;47.446;18.912;2023-07-22T07:27:15;5.97;;;3.62;;
48367;SDS011;34173;47.446;18.912;2023-07-22T07:29:42;5.30;;;3.60;;
48367;SDS011;34173;47.446;18.912;2023-07-22T07:32:21;7.37;;;3.90;;
48367;SDS011;34173;47.446;18.912;2023-07-22T07:34:51;6.07;;;3.67;;
48367;SDS011;34173;47.446;18.912;2023-07-22T07:37:18;6.03;;;3.70;;
48367;SDS011;34173;47.446;18.912;2023-07-22T07:39:46;6.68;;;3.80;;
48367;SDS011;34173;47.446;18.912;2023-07-22T07:42:14;8.20;;;3.67;;
48367;SDS011;34173;47.446;18.912;2023-07-22T07:44:41;8.25;;;3.90;;
48367;SDS011;34173;47.446;18.912;2023-07-22T07:47:09;8.38;;;4.25;;
48367;SDS011;34173;47.446;18.912;2023-07-22T07:49:36;8.35;;;4.50;;
48367;SDS011;34173;47.446;18.912;2023-07-22T07:52:04;8.50;;;4.60;;
48367;SDS011;34173;47.446;18.912;2023-07-22T07:54:32;10.13;;;5.22;;
48367;SDS011;34173;47.446;18.912;2023-07-22T07:56:59;7.00;;;4.40;;
48367;SDS011;34173;47.446;18.912;2023-07-22T07:59:27;7.50;;;3.83;;
48367;SDS011;34173;47.446;18.912;2023-07-22T08:01:54;4.97;;;3.77;;
48367;SDS011;34173;47.446;18.912;2023-07-22T08:04:22;5.43;;;3.80;;
48367;SDS011;34173;47.446;18.912;2023-07-22T08:06:50;7.43;;;3.70;;
48367;SDS011;34173;47.446;18.912;2023-07-22T08:09:18;7.18;;;3.67;;
48367;SDS011;34173;47.446;18.912;2023-07-22T08:11:48;8.27;;;4.07;;
48367;SDS011;34173;47.446;18.912;2023-07-22T08:14:16;5.47;;;3.58;;
48367;SDS011;34173;47.446;18.912;2023-07-22T08:16:45;6.50;;;3.50;;
48367;SDS011;34173;47.446;18.912;2023-07-22T08:19:13;5.30;;;3.50;;
48367;SDS011;34173;47.446;18.912;2023-07-22T08:21:40;6.37;;;3.40;;
48367;SDS011;34173;47.446;18.912;2023-07-22T08:24:08;7.20;;;3.50;;
48367;SDS011;34173;47.446;18.912;2023-07-22T08:26:36;5.68;;;3.25;;
48367;SDS011;34173;47.446;18.912;2023-07-22T08:29:04;6.60;;;3.50;;
48367;SDS011;34173;47.446;18.912;2023-07-22T08:31:31;8.05;;;3.40;;
48367;SDS011;34173;47.446;18.912;2023-07-22T08:33:59;6.70;;;3.45;;
48367;SDS011;34173;47.446;18.912;2023-07-22T08:36:27;5.15;;;3.50;;
48367;SDS011;34173;47.446;18.912;2023-07-22T08:38:55;4.70;;;3.22;;
48367;SDS011;34173;47.446;18.912;2023-07-22T08:41:22;5.12;;;3.37;;
48367;SDS011;34173;47.446;18.912;2023-07-22T08:43:52;4.90;;;3.25;;
48367;SDS011;34173;47.446;18.912;2023-07-22T08:46:21;7.20;;;3.00;;
48367;SDS011;34173;47.446;18.912;2023-07-22T08:48:52;5.35;;;2.97;;
48367;SDS011;34173;47.446;18.912;2023-07-22T08:51:20;5.10;;;2.95;;
48367;SDS011;34173;47.446;18.912;2023-07-22T08:53:50;6.47;;;2.95;;
48367;SDS011;34173;47.446;18.912;2023-07-22T08:56:35;5.40;;;2.75;;
48367;SDS011;34173;47.446;18.912;2023-07-22T08:59:04;4.70;;;2.87;;
48367;SDS011;34173;47.446;18.912;2023-07-22T09:01:33;4.62;;;2.90;;
48367;SDS011;34173;47.446;18.912;2023-07-22T09:04:04;6.07;;;3.10;;
48367;SDS011;34173;47.446;18.912;2023-07-22T09:06:32;5.43;;;2.70;;
48367;SDS011;34173;47.446;18.912;2023-07-22T09:09:01;5.22;;;2.90;;
48367;SDS011;34173;47.446;18.912;2023-07-22T09:11:34;4.43;;;2.60;;
48367;SDS011;34173;47.446;18.912;2023-07-22T09:14:03;4.12;;;2.40;;
48367;SDS011;34173;47.446;18.912;2023-07-22T09:16:33;4.33;;;2.30;;
48367;SDS011;34173;47.446;18.912;2023-07-22T09:19:03;4.57;;;2.25;;
48367;SDS011;34173;47.446;18.912;2023-07-22T09:21:32;3.67;;;2.25;;
48367;SDS011;34173;47.446;18.912;2023-07-22T09:24:19;4.43;;;2.20;;
48367;SDS011;34173;47.446;18.912;2023-07-22T09:26:49;4.22;;;2.22;;
48367;SDS011;34173;47.446;18.912;2023-07-22T09:29:18;3.95;;;2.45;;
48367;SDS011;34173;47.446;18.912;2023-07-22T09:32:00;5.60;;;2.10;;
48367;SDS011;34173;47.446;18.912;2023-07-22T09:34:27;4.37;;;2.20;;
48367;SDS011;34173;47.446;18.912;2023-07-22T09:36:55;4.65;;;2.30;;
48367;SDS011;34173;47.446;18.912;2023-07-22T09:39:24;4.22;;;1.92;;
48367;SDS011;34173;47.446;18.912;2023-07-22T09:41:52;4.80;;;2.25;;
48367;SDS011;34173;47.446;18.912;2023-07-22T09:44:20;4.50;;;2.28;;
48367;SDS011;34173;47.446;18.912;2023-07-22T09:46:48;4.18;;;2.40;;
48367;SDS011;34173;47.446;18.912;2023-07-22T09:49:18;4.00;;;2.28;;
48367;SDS011;34173;47.446;18.912;2023-07-22T09:51:45;3.70;;;2.15;;
48367;SDS011;34173;47.446;18.912;2023-07-22T09:54:29;6.60;;;2.45;;
48367;SDS011;34173;47.446;18.912;2023-07-22T09:56:58;4.62;;;2.30;;
48367;SDS011;34173;47.446;18.912;2023-07-22T09:59:27;4.60;;;2.22;;
48367;SDS011;34173;47.446;18.912;2023-07-22T10:01:56;3.22;;;2.05;;
48367;SDS011;34173;47.446;18.912;2023-07-22T10:04:26;4.47;;;2.20;;
48367;SDS011;34173;47.446;18.912;2023-07-22T10:06:55;4.57;;;2.50;;
48367;SDS011;34173;47.446;18.912;2023-07-22T10:09:23;4.30;;;1.95;;
48367;SDS011;34173;47.446;18.912;2023-07-22T10:11:51;4.12;;;2.00;;
48367;SDS011;34173;47.446;18.912;2023-07-22T10:14:18;4.50;;;1.97;;
48367;SDS011;34173;47.446;18.912;2023-07-22T10:16:46;3.33;;;2.00;;
48367;SDS011;34173;47.446;18.912;2023-07-22T10:19:14;5.75;;;2.10;;
48367;SDS011;34173;47.446;18.912;2023-07-22T10:21:42;4.30;;;2.15;;
48367;SDS011;34173;47.446;18.912;2023-07-22T10:24:11;4.40;;;1.90;;
48367;SDS011;34173;47.446;18.912;2023-07-22T10:26:39;4.57;;;2.13;;
48367;SDS011;34173;47.446;18.912;2023-07-22T10:29:13;4.50;;;2.00;;
48367;SDS011;34173;47.446;18.912;2023-07-22T10:31:42;3.67;;;1.80;;
48367;SDS011;34173;47.446;18.912;2023-07-22T10:34:09;3.72;;;1.80;;
48367;SDS011;34173;47.446;18.912;2023-07-22T10:36:37;4.12;;;2.10;;
48367;SDS011;34173;47.446;18.912;2023-07-22T10:39:05;5.62;;;2.10;;
48367;SDS011;34173;47.446;18.912;2023-07-22T10:41:32;3.87;;;1.87;;
48367;SDS011;34173;47.446;18.912;2023-07-22T10:44:00;3.25;;;1.83;;
48367;SDS011;34173;47.446;18.912;2023-07-22T10:46:36;3.75;;;1.73;;
48367;SDS011;34173;47.446;18.912;2023-07-22T10:49:11;3.90;;;1.83;;
48367;SDS011;34173;47.446;18.912;2023-07-22T10:51:47;4.97;;;1.90;;
48367;SDS011;34173;47.446;18.912;2023-07-22T10:57:44;4.15;;;1.85;;
48367;SDS011;34173;47.446;18.912;2023-07-22T10:59:55;3.95;;;2.00;;
48367;SDS011;34173;47.446;18.912;2023-07-22T11:02:24;5.43;;;1.90;;
48367;SDS011;34173;47.446;18.912;2023-07-22T11:04:52;3.62;;;1.80;;
48367;SDS011;34173;47.446;18.912;2023-07-22T11:07:30;3.35;;;1.80;;
48367;SDS011;34173;47.446;18.912;2023-07-22T11:10:19;3.87;;;1.70;;
48367;SDS011;34173;47.446;18.912;2023-07-22T11:12:47;3.85;;;1.90;;
48367;SDS011;34173;47.446;18.912;2023-07-22T11:15:15;3.97;;;1.70;;
48367;SDS011;34173;47.446;18.912;2023-07-22T11:17:44;4.15;;;1.80;;
48367;SDS011;34173;47.446;18.912;2023-07-22T11:20:12;3.55;;;1.70;;
48367;SDS011;34173;47.446;18.912;2023-07-22T11:22:40;3.42;;;1.50;;
48367;SDS011;34173;47.446;18.912;2023-07-22T11:25:08;3.83;;;1.80;;
48367;SDS011;34173;47.446;18.912;2023-07-22T11:27:36;3.23;;;1.60;;
48367;SDS011;34173;47.446;18.912;2023-07-22T11:30:04;4.03;;;1.70;;
48367;SDS011;34173;47.446;18.912;2023-07-22T11:32:32;4.55;;;1.92;;
48367;SDS011;34173;47.446;18.912;2023-07-22T11:35:00;3.87;;;1.92;;
48367;SDS011;34173;47.446;18.912;2023-07-22T11:37:27;3.28;;;1.35;;
48367;SDS011;34173;47.446;18.912;2023-07-22T11:40:02;4.27;;;1.53;;
48367;SDS011;34173;47.446;18.912;2023-07-22T11:42:30;3.53;;;1.52;;
48367;SDS011;34173;47.446;18.912;2023-07-22T11:45:01;4.28;;;1.60;;
48367;SDS011;34173;47.446;18.912;2023-07-22T11:47:30;3.33;;;1.60;;
48367;SDS011;34173;47.446;18.912;2023-07-22T11:49:58;4.03;;;1.73;;
48367;SDS011;34173;47.446;18.912;2023-07-22T11:52:26;4.43;;;1.70;;
48367;SDS011;34173;47.446;18.912;2023-07-22T11:54:53;4.65;;;1.83;;
48367;SDS011;34173;47.446;18.912;2023-07-22T11:57:28;3.87;;;1.60;;
48367;SDS011;34173;47.446;18.912;2023-07-22T11:59:56;4.10;;;1.70;;
48367;SDS011;34173;47.446;18.912;2023-07-22T12:02:27;3.17;;;1.60;;
48367;SDS011;34173;47.446;18.912;2023-07-22T12:04:57;3.63;;;1.57;;
48367;SDS011;34173;47.446;18.912;2023-07-22T12:07:27;3.50;;;1.33;;
48367;SDS011;34173;47.446;18.912;2023-07-22T12:09:57;2.25;;;1.30;;
48367;SDS011;34173;47.446;18.912;2023-07-22T12:12:32;3.22;;;1.35;;
48367;SDS011;34173;47.446;18.912;2023-07-22T12:15:20;2.97;;;1.40;;
48367;SDS011;34173;47.446;18.912;2023-07-22T12:17:52;2.60;;;1.27;;
48367;SDS011;34173;47.446;18.912;2023-07-22T12:20:25;2.75;;;1.20;;
48367;SDS011;34173;47.446;18.912;2023-07-22T12:22:55;3.15;;;1.30;;
48367;SDS011;34173;47.446;18.912;2023-07-22T12:25:23;2.80;;;1.30;;
48367;SDS011;34173;47.446;18.912;2023-07-22T12:27:51;3.33;;;1.17;;
48367;SDS011;34173;47.446;18.912;2023-07-22T12:30:19;3.72;;;1.30;;
48367;SDS011;34173;47.446;18.912;2023-07-22T12:32:47;3.47;;;1.27;;
48367;SDS011;34173;47.446;18.912;2023-07-22T12:35:16;3.17;;;1.25;;
48367;SDS011;34173;47.446;18.912;2023-07-22T12:37:43;2.42;;;1.20;;
48367;SDS011;34173;47.446;18.912;2023-07-22T12:40:11;2.87;;;1.20;;
48367;SDS011;34173;47.446;18.912;2023-07-22T12:42:40;2.55;;;1.33;;
48367;SDS011;34173;47.446;18.912;2023-07-22T12:45:08;2.83;;;1.33;;
48367;SDS011;34173;47.446;18.912;2023-07-22T12:47:36;2.78;;;1.30;;
48367;SDS011;34173;47.446;18.912;2023-07-22T12:50:05;2.55;;;1.20;;
48367;SDS011;34173;47.446;18.912;2023-07-22T12:52:35;2.80;;;1.10;;
48367;SDS011;34173;47.446;18.912;2023-07-22T12:55:03;2.83;;;1.20;;
48367;SDS011;34173;47.446;18.912;2023-07-22T12:57:31;4.35;;;1.30;;
48367;SDS011;34173;47.446;18.912;2023-07-22T12:59:59;2.22;;;1.17;;
48367;SDS011;34173;47.446;18.912;2023-07-22T13:02:26;2.28;;;1.20;;
48367;SDS011;34173;47.446;18.912;2023-07-22T13:04:54;2.87;;;1.23;;
48367;SDS011;34173;47.446;18.912;2023-07-22T13:07:22;2.70;;;1.20;;
48367;SDS011;34173;47.446;18.912;2023-07-22T13:09:50;2.25;;;1.27;;
48367;SDS011;34173;47.446;18.912;2023-07-22T13:12:20;2.83;;;1.27;;
48367;SDS011;34173;47.446;18.912;2023-07-22T13:14:48;3.03;;;1.37;;
48367;SDS011;34173;47.446;18.912;2023-07-22T13:17:15;2.85;;;1.27;;
48367;SDS011;34173;47.446;18.912;2023-07-22T13:19:43;2.90;;;1.30;;
48367;SDS011;34173;47.446;18.912;2023-07-22T13:22:11;2.72;;;1.35;;
48367;SDS011;34173;47.446;18.912;2023-07-22T13:24:38;2.70;;;1.40;;
48367;SDS011;34173;47.446;18.912;2023-07-22T13:27:06;3.35;;;1.30;;
48367;SDS011;34173;47.446;18.912;2023-07-22T13:29:34;2.03;;;1.10;;
48367;SDS011;34173;47.446;18.912;2023-07-22T13:32:02;3.20;;;1.40;;
48367;SDS011;34173;47.446;18.912;2023-07-22T13:34:31;2.92;;;1.40;;
48367;SDS011;34173;47.446;18.912;2023-07-22T13:36:59;2.78;;;1.10;;
48367;SDS011;34173;47.446;18.912;2023-07-22T13:39:29;2.53;;;1.23;;
48367;SDS011;34173;47.446;18.912;2023-07-22T13:41:56;2.97;;;1.20;;
48367;SDS011;34173;47.446;18.912;2023-07-22T13:44:24;3.83;;;1.30;;
48367;SDS011;34173;47.446;18.912;2023-07-22T13:46:51;2.70;;;1.20;;
48367;SDS011;34173;47.446;18.912;2023-07-22T13:49:19;3.17;;;1.10;;
48367;SDS011;34173;47.446;18.912;2023-07-22T13:51:46;2.50;;;1.23;;
48367;SDS011;34173;47.446;18.912;2023-07-22T13:54:14;4.25;;;1.40;;
48367;SDS011;34173;47.446;18.912;2023-07-22T13:56:43;4.75;;;1.58;;
48367;SDS011;34173;47.446;18.912;2023-07-22T13:59:11;2.85;;;1.37;;
48367;SDS011;34173;47.446;18.912;2023-07-22T14:01:38;2.40;;;1.40;;
48367;SDS011;34173;47.446;18.912;2023-07-22T14:04:06;2.83;;;1.35;;
48367;SDS011;34173;47.446;18.912;2023-07-22T14:06:34;2.97;;;1.30;;
48367;SDS011;34173;47.446;18.912;2023-07-22T14:09:02;3.03;;;1.60;;
48367;SDS011;34173;47.446;18.912;2023-07-22T14:11:33;2.78;;;1.30;;
48367;SDS011;34173;47.446;18.912;2023-07-22T14:14:00;3.08;;;1.40;;
48367;SDS011;34173;47.446;18.912;2023-07-22T14:16:28;3.63;;;1.30;;
48367;SDS011;34173;47.446;18.912;2023-07-22T14:18:56;3.70;;;1.50;;
48367;SDS011;34173;47.446;18.912;2023-07-22T14:21:23;3.80;;;1.40;;
48367;SDS011;34173;47.446;18.912;2023-07-22T14:23:51;3.20;;;1.63;;
48367;SDS011;34173;47.446;18.912;2023-07-22T14:26:19;3.23;;;1.30;;
48367;SDS011;34173;47.446;18.912;2023-07-22T14:28:47;4.40;;;1.40;;
48367;SDS011;34173;47.446;18.912;2023-07-22T14:31:15;3.08;;;1.45;;
48367;SDS011;34173;47.446;18.912;2023-07-22T14:33:43;4.22;;;1.48;;
48367;SDS011;34173;47.446;18.912;2023-07-22T14:36:11;3.30;;;1.20;;
48367;SDS011;34173;47.446;18.912;2023-07-22T14:38:39;3.12;;;1.50;;
48367;SDS011;34173;47.446;18.912;2023-07-22T14:41:07;3.05;;;1.42;;
48367;SDS011;34173;47.446;18.912;2023-07-22T14:43:35;2.75;;;1.37;;